Pagrindinis puslapis
METAR-TAF:

METAR-TAF

Oro uostai :

Malmė, Švedija

platuma: 55-33N, ilguma: 013-22E, Aukštis: 106 m

Dabartinis oras

Ataskaita buvo paskelbta 18 minutes, ne 02:50 UTC
Vėjas 2 kt iš Pietų/Pietvakarių
Temperatūra 13°C
Drėgmė 88%
Slėgis 1015 hPa
Matomumas 10 km arba daugiau
nėra debesų žemiau 1500 m ir nėra kamuolinių lietaus debesų

METAR: ESMS 250250Z 21002KT CAVOK 13/11 Q1015

Laikas: 05:08 (03:08 UTC)

Prognozė

Ataskaita buvo paskelbta 4 valandos ir 6 minutes, ne 23:02 UTC
Prognozė galioja nuo 25 metu 00 UTC su 25 metu 24 UTC
Vėjas 8 kt iš Vakarų/Šiaurės Vakarų
Matomumas 10 km arba daugiau
Išsisklaidę debesys ne aukštis 4500 ft

TAF: ESMS 242302Z 2500/2524 30008KT 9999 SCT045

Orai ataskaitas ir orų prognozės (METAR, TAF).

turimą stotys yra geltonos ir raudonos taškus žemėlapyje.

Perkelti pele per norėdami pamatyti stoties vardą.

Tada spustelėkite, norėdami matyti oro stebėjimo ir prognozės.

Norėdami pakeisti žemėlapį: spustelėkite ant žalios mygtukų su juodo kryžiaus žemyn,; žalią mygtuką su brūkšneliu, jei norite nutolinti; arba žalių rodyklių gretimoms žemėlapius.


METAR-TAF: